sensor_id;sensor_type;location;lat;lon;timestamp;P1;durP1;ratioP1;P2;durP2;ratioP2
39822;SDS011;25499;53.958;10.970;2023-07-31T09:28:38;1.00;;;1.00;;
39822;SDS011;25499;53.958;10.970;2023-07-31T09:31:05;1.10;;;1.00;;
39822;SDS011;25499;53.958;10.970;2023-07-31T09:33:31;0.90;;;0.73;;
39822;SDS011;25499;53.958;10.970;2023-07-31T09:36:00;1.27;;;1.08;;
39822;SDS011;25499;53.958;10.970;2023-07-31T09:38:27;1.48;;;0.90;;
39822;SDS011;25499;53.958;10.970;2023-07-31T09:40:54;1.77;;;1.00;;
39822;SDS011;25499;53.958;10.970;2023-07-31T09:43:25;1.38;;;0.90;;
39822;SDS011;25499;53.958;10.970;2023-07-31T09:45:56;0.75;;;0.63;;
39822;SDS011;25499;53.958;10.970;2023-07-31T09:48:23;0.65;;;0.65;;
39822;SDS011;25499;53.958;10.970;2023-07-31T09:50:52;1.83;;;1.00;;
39822;SDS011;25499;53.958;10.970;2023-07-31T09:53:19;1.35;;;0.85;;
39822;SDS011;25499;53.958;10.970;2023-07-31T09:55:54;1.55;;;0.98;;
39822;SDS011;25499;53.958;10.970;2023-07-31T09:58:23;0.98;;;0.70;;
39822;SDS011;25499;53.958;10.970;2023-07-31T10:00:49;1.63;;;0.77;;
39822;SDS011;25499;53.958;10.970;2023-07-31T10:03:18;1.38;;;0.80;;
39822;SDS011;25499;53.958;10.970;2023-07-31T10:05:45;0.60;;;0.60;;
39822;SDS011;25499;53.958;10.970;2023-07-31T10:08:18;1.75;;;0.63;;
39822;SDS011;25499;53.958;10.970;2023-07-31T10:10:47;1.00;;;0.68;;
39822;SDS011;25499;53.958;10.970;2023-07-31T10:13:14;1.23;;;0.70;;
39822;SDS011;25499;53.958;10.970;2023-07-31T10:15:42;0.50;;;0.50;;
39822;SDS011;25499;53.958;10.970;2023-07-31T10:18:09;0.70;;;0.70;;
39822;SDS011;25499;53.958;10.970;2023-07-31T10:20:39;1.50;;;0.80;;
39822;SDS011;25499;53.958;10.970;2023-07-31T10:23:06;1.30;;;0.70;;
39822;SDS011;25499;53.958;10.970;2023-07-31T10:25:35;1.23;;;0.70;;
39822;SDS011;25499;53.958;10.970;2023-07-31T10:28:03;1.67;;;0.82;;
39822;SDS011;25499;53.958;10.970;2023-07-31T10:30:30;0.80;;;0.80;;
39822;SDS011;25499;53.958;10.970;2023-07-31T10:32:59;1.20;;;0.88;;
39822;SDS011;25499;53.958;10.970;2023-07-31T10:35:28;2.08;;;1.55;;
39822;SDS011;25499;53.958;10.970;2023-07-31T10:37:56;1.25;;;1.05;;
39822;SDS011;25499;53.958;10.970;2023-07-31T10:40:36;1.30;;;1.10;;
39822;SDS011;25499;53.958;10.970;2023-07-31T10:43:03;1.40;;;1.30;;
39822;SDS011;25499;53.958;10.970;2023-07-31T10:45:34;1.10;;;1.00;;
39822;SDS011;25499;53.958;10.970;2023-07-31T10:48:03;1.15;;;1.00;;
39822;SDS011;25499;53.958;10.970;2023-07-31T10:50:31;1.02;;;1.00;;
39822;SDS011;25499;53.958;10.970;2023-07-31T10:53:00;1.05;;;0.95;;
39822;SDS011;25499;53.958;10.970;2023-07-31T10:55:28;1.10;;;1.00;;
39822;SDS011;25499;53.958;10.970;2023-07-31T10:57:57;1.00;;;1.00;;
39822;SDS011;25499;53.958;10.970;2023-07-31T11:00:31;1.42;;;1.00;;
39822;SDS011;25499;53.958;10.970;2023-07-31T11:03:02;1.20;;;1.10;;
39822;SDS011;25499;53.958;10.970;2023-07-31T11:05:43;0.90;;;0.90;;
39822;SDS011;25499;53.958;10.970;2023-07-31T11:08:16;0.98;;;0.88;;
39822;SDS011;25499;53.958;10.970;2023-07-31T11:10:44;1.00;;;1.00;;
39822;SDS011;25499;53.958;10.970;2023-07-31T11:13:12;1.15;;;0.82;;
39822;SDS011;25499;53.958;10.970;2023-07-31T11:15:39;0.80;;;0.80;;
39822;SDS011;25499;53.958;10.970;2023-07-31T11:18:07;0.65;;;0.65;;
39822;SDS011;25499;53.958;10.970;2023-07-31T11:20:36;1.10;;;1.00;;
39822;SDS011;25499;53.958;10.970;2023-07-31T11:23:05;0.82;;;0.82;;
39822;SDS011;25499;53.958;10.970;2023-07-31T11:25:35;1.02;;;0.80;;
39822;SDS011;25499;53.958;10.970;2023-07-31T11:28:03;1.20;;;1.00;;
39822;SDS011;25499;53.958;10.970;2023-07-31T11:30:32;0.93;;;0.80;;
39822;SDS011;25499;53.958;10.970;2023-07-31T11:33:00;1.05;;;0.70;;
39822;SDS011;25499;53.958;10.970;2023-07-31T11:35:29;0.90;;;0.60;;
39822;SDS011;25499;53.958;10.970;2023-07-31T11:37:57;0.63;;;0.60;;
39822;SDS011;25499;53.958;10.970;2023-07-31T11:40:24;0.60;;;0.60;;
39822;SDS011;25499;53.958;10.970;2023-07-31T11:42:55;0.77;;;0.60;;
39822;SDS011;25499;53.958;10.970;2023-07-31T11:45:25;1.45;;;0.60;;
39822;SDS011;25499;53.958;10.970;2023-07-31T11:47:54;0.70;;;0.63;;
39822;SDS011;25499;53.958;10.970;2023-07-31T11:50:22;1.65;;;0.60;;
39822;SDS011;25499;53.958;10.970;2023-07-31T11:52:52;0.88;;;0.60;;
39822;SDS011;25499;53.958;10.970;2023-07-31T11:55:23;2.15;;;0.80;;
39822;SDS011;25499;53.958;10.970;2023-07-31T11:57:50;1.00;;;0.60;;
39822;SDS011;25499;53.958;10.970;2023-07-31T12:00:19;2.95;;;0.63;;
39822;SDS011;25499;53.958;10.970;2023-07-31T12:02:49;1.10;;;0.50;;
39822;SDS011;25499;53.958;10.970;2023-07-31T12:05:16;1.52;;;0.57;;
39822;SDS011;25499;53.958;10.970;2023-07-31T12:07:44;0.98;;;0.45;;
39822;SDS011;25499;53.958;10.970;2023-07-31T12:12:59;1.83;;;0.50;;
39822;SDS011;25499;53.958;10.970;2023-07-31T12:15:39;0.50;;;0.32;;
39822;SDS011;25499;53.958;10.970;2023-07-31T12:18:07;1.08;;;0.50;;
39822;SDS011;25499;53.958;10.970;2023-07-31T12:20:40;0.38;;;0.38;;
39822;SDS011;25499;53.958;10.970;2023-07-31T12:23:12;0.50;;;0.50;;
39822;SDS011;25499;53.958;10.970;2023-07-31T12:25:40;0.70;;;0.35;;
39822;SDS011;25499;53.958;10.970;2023-07-31T12:28:07;0.70;;;0.40;;
39822;SDS011;25499;53.958;10.970;2023-07-31T12:30:37;0.38;;;0.38;;
39822;SDS011;25499;53.958;10.970;2023-07-31T12:33:07;0.40;;;0.40;;
39822;SDS011;25499;53.958;10.970;2023-07-31T12:35:40;0.30;;;0.30;;
39822;SDS011;25499;53.958;10.970;2023-07-31T12:38:09;0.40;;;0.40;;
39822;SDS011;25499;53.958;10.970;2023-07-31T12:40:37;0.30;;;0.30;;
39822;SDS011;25499;53.958;10.970;2023-07-31T12:43:05;0.40;;;0.40;;
39822;SDS011;25499;53.958;10.970;2023-07-31T12:45:33;1.02;;;0.20;;
39822;SDS011;25499;53.958;10.970;2023-07-31T12:48:02;1.10;;;0.30;;
39822;SDS011;25499;53.958;10.970;2023-07-31T12:50:29;0.40;;;0.40;;
39822;SDS011;25499;53.958;10.970;2023-07-31T12:52:56;0.65;;;0.40;;
39822;SDS011;25499;53.958;10.970;2023-07-31T12:55:23;1.50;;;0.40;;
39822;SDS011;25499;53.958;10.970;2023-07-31T12:57:50;0.77;;;0.50;;
39822;SDS011;25499;53.958;10.970;2023-07-31T13:00:17;0.40;;;0.40;;
39822;SDS011;25499;53.958;10.970;2023-07-31T13:02:45;0.70;;;0.35;;
39822;SDS011;25499;53.958;10.970;2023-07-31T13:05:13;0.60;;;0.50;;
39822;SDS011;25499;53.958;10.970;2023-07-31T13:07:40;1.67;;;0.50;;
39822;SDS011;25499;53.958;10.970;2023-07-31T13:10:07;0.73;;;0.50;;
39822;SDS011;25499;53.958;10.970;2023-07-31T13:12:35;0.50;;;0.50;;
39822;SDS011;25499;53.958;10.970;2023-07-31T13:15:01;2.28;;;0.55;;
39822;SDS011;25499;53.958;10.970;2023-07-31T13:17:28;0.52;;;0.40;;
39822;SDS011;25499;53.958;10.970;2023-07-31T13:19:55;0.90;;;0.50;;
39822;SDS011;25499;53.958;10.970;2023-07-31T13:22:23;0.57;;;0.40;;
39822;SDS011;25499;53.958;10.970;2023-07-31T13:24:50;0.50;;;0.40;;
39822;SDS011;25499;53.958;10.970;2023-07-31T13:27:16;1.02;;;0.60;;
39822;SDS011;25499;53.958;10.970;2023-07-31T13:29:45;0.90;;;0.70;;
39822;SDS011;25499;53.958;10.970;2023-07-31T13:32:12;0.80;;;0.68;;
39822;SDS011;25499;53.958;10.970;2023-07-31T13:34:39;1.25;;;0.50;;
39822;SDS011;25499;53.958;10.970;2023-07-31T13:37:06;2.72;;;0.50;;
39822;SDS011;25499;53.958;10.970;2023-07-31T13:39:34;3.15;;;0.60;;
39822;SDS011;25499;53.958;10.970;2023-07-31T13:42:04;0.90;;;0.60;;
39822;SDS011;25499;53.958;10.970;2023-07-31T13:44:31;1.20;;;0.70;;
39822;SDS011;25499;53.958;10.970;2023-07-31T13:46:58;0.85;;;0.73;;
39822;SDS011;25499;53.958;10.970;2023-07-31T13:49:25;1.65;;;0.80;;
39822;SDS011;25499;53.958;10.970;2023-07-31T13:51:52;1.88;;;1.00;;
39822;SDS011;25499;53.958;10.970;2023-07-31T13:54:19;1.75;;;0.77;;
39822;SDS011;25499;53.958;10.970;2023-07-31T13:56:47;1.60;;;0.88;;
39822;SDS011;25499;53.958;10.970;2023-07-31T13:59:14;0.88;;;0.73;;
39822;SDS011;25499;53.958;10.970;2023-07-31T14:01:41;0.80;;;0.80;;
39822;SDS011;25499;53.958;10.970;2023-07-31T14:04:08;1.38;;;0.80;;
39822;SDS011;25499;53.958;10.970;2023-07-31T14:06:35;1.67;;;1.00;;
39822;SDS011;25499;53.958;10.970;2023-07-31T14:09:02;0.77;;;0.70;;
39822;SDS011;25499;53.958;10.970;2023-07-31T14:11:30;2.85;;;0.80;;
39822;SDS011;25499;53.958;10.970;2023-07-31T14:13:58;1.95;;;0.70;;
39822;SDS011;25499;53.958;10.970;2023-07-31T14:16:26;0.90;;;0.68;;
39822;SDS011;25499;53.958;10.970;2023-07-31T14:18:53;1.02;;;0.75;;
39822;SDS011;25499;53.958;10.970;2023-07-31T14:21:20;1.55;;;0.75;;
39822;SDS011;25499;53.958;10.970;2023-07-31T14:23:47;1.48;;;0.75;;
39822;SDS011;25499;53.958;10.970;2023-07-31T14:26:13;2.65;;;0.90;;
39822;SDS011;25499;53.958;10.970;2023-07-31T14:28:40;2.58;;;0.77;;
39822;SDS011;25499;53.958;10.970;2023-07-31T14:31:11;1.27;;;0.98;;
39822;SDS011;25499;53.958;10.970;2023-07-31T14:33:38;1.13;;;0.63;;
39822;SDS011;25499;53.958;10.970;2023-07-31T14:36:06;0.68;;;0.50;;
39822;SDS011;25499;53.958;10.970;2023-07-31T14:38:32;0.93;;;0.70;;
39822;SDS011;25499;53.958;10.970;2023-07-31T14:41:00;1.70;;;0.80;;
39822;SDS011;25499;53.958;10.970;2023-07-31T14:43:27;2.33;;;0.63;;
39822;SDS011;25499;53.958;10.970;2023-07-31T14:45:54;1.02;;;0.70;;
39822;SDS011;25499;53.958;10.970;2023-07-31T14:48:25;1.55;;;0.77;;
39822;SDS011;25499;53.958;10.970;2023-07-31T14:50:54;0.50;;;0.50;;
39822;SDS011;25499;53.958;10.970;2023-07-31T14:53:21;1.35;;;0.63;;
39822;SDS011;25499;53.958;10.970;2023-07-31T14:55:48;0.77;;;0.55;;
39822;SDS011;25499;53.958;10.970;2023-07-31T14:58:14;1.67;;;0.70;;
39822;SDS011;25499;53.958;10.970;2023-07-31T15:00:42;2.92;;;0.93;;
39822;SDS011;25499;53.958;10.970;2023-07-31T15:03:10;1.65;;;0.80;;
39822;SDS011;25499;53.958;10.970;2023-07-31T15:05:38;0.70;;;0.60;;
39822;SDS011;25499;53.958;10.970;2023-07-31T15:08:04;1.20;;;0.50;;
39822;SDS011;25499;53.958;10.970;2023-07-31T15:10:31;1.30;;;0.73;;
39822;SDS011;25499;53.958;10.970;2023-07-31T15:12:58;0.85;;;0.52;;
39822;SDS011;25499;53.958;10.970;2023-07-31T15:15:26;1.60;;;0.68;;
39822;SDS011;25499;53.958;10.970;2023-07-31T15:17:53;1.55;;;0.85;;
39822;SDS011;25499;53.958;10.970;2023-07-31T15:20:23;1.08;;;0.60;;
39822;SDS011;25499;53.958;10.970;2023-07-31T15:22:51;1.35;;;0.63;;
39822;SDS011;25499;53.958;10.970;2023-07-31T15:25:18;1.10;;;0.80;;
39822;SDS011;25499;53.958;10.970;2023-07-31T15:27:45;2.55;;;1.10;;
39822;SDS011;25499;53.958;10.970;2023-07-31T15:30:12;0.90;;;0.60;;
39822;SDS011;25499;53.958;10.970;2023-07-31T15:32:38;1.23;;;0.52;;
39822;SDS011;25499;53.958;10.970;2023-07-31T15:35:05;1.00;;;0.65;;
39822;SDS011;25499;53.958;10.970;2023-07-31T15:37:33;4.15;;;0.60;;
39822;SDS011;25499;53.958;10.970;2023-07-31T15:40:01;1.42;;;1.17;;
39822;SDS011;25499;53.958;10.970;2023-07-31T15:42:27;0.57;;;0.52;;
39822;SDS011;25499;53.958;10.970;2023-07-31T15:44:55;1.00;;;0.60;;
39822;SDS011;25499;53.958;10.970;2023-07-31T15:47:22;1.98;;;0.80;;
39822;SDS011;25499;53.958;10.970;2023-07-31T15:49:48;0.95;;;0.70;;
39822;SDS011;25499;53.958;10.970;2023-07-31T15:52:15;2.22;;;0.70;;
39822;SDS011;25499;53.958;10.970;2023-07-31T15:54:42;2.28;;;0.60;;
39822;SDS011;25499;53.958;10.970;2023-07-31T15:57:10;3.45;;;0.90;;
39822;SDS011;25499;53.958;10.970;2023-07-31T15:59:36;3.17;;;0.60;;
39822;SDS011;25499;53.958;10.970;2023-07-31T16:02:03;1.42;;;0.60;;
39822;SDS011;25499;53.958;10.970;2023-07-31T16:04:30;1.67;;;0.68;;
39822;SDS011;25499;53.958;10.970;2023-07-31T16:06:57;2.25;;;0.63;;
39822;SDS011;25499;53.958;10.970;2023-07-31T16:09:24;2.40;;;0.80;;
39822;SDS011;25499;53.958;10.970;2023-07-31T16:11:50;1.65;;;0.60;;
39822;SDS011;25499;53.958;10.970;2023-07-31T16:14:18;1.88;;;0.73;;
39822;SDS011;25499;53.958;10.970;2023-07-31T16:16:45;1.15;;;0.75;;
39822;SDS011;25499;53.958;10.970;2023-07-31T16:19:14;5.90;;;0.85;;
39822;SDS011;25499;53.958;10.970;2023-07-31T16:21:40;3.53;;;0.77;;
39822;SDS011;25499;53.958;10.970;2023-07-31T16:24:07;2.83;;;0.60;;
39822;SDS011;25499;53.958;10.970;2023-07-31T16:26:34;1.05;;;0.70;;
39822;SDS011;25499;53.958;10.970;2023-07-31T16:29:00;1.40;;;0.50;;
39822;SDS011;25499;53.958;10.970;2023-07-31T16:31:28;2.58;;;0.70;;
39822;SDS011;25499;53.958;10.970;2023-07-31T16:33:55;1.00;;;0.50;;
39822;SDS011;25499;53.958;10.970;2023-07-31T16:36:23;2.33;;;0.60;;
39822;SDS011;25499;53.958;10.970;2023-07-31T16:38:50;1.80;;;0.80;;
39822;SDS011;25499;53.958;10.970;2023-07-31T16:41:17;1.13;;;0.70;;
39822;SDS011;25499;53.958;10.970;2023-07-31T16:43:44;5.15;;;0.88;;
39822;SDS011;25499;53.958;10.970;2023-07-31T16:46:10;1.95;;;0.70;;
39822;SDS011;25499;53.958;10.970;2023-07-31T16:48:38;0.88;;;0.68;;
39822;SDS011;25499;53.958;10.970;2023-07-31T16:51:05;1.13;;;0.60;;
39822;SDS011;25499;53.958;10.970;2023-07-31T16:53:32;1.20;;;0.77;;
39822;SDS011;25499;53.958;10.970;2023-07-31T16:55:59;1.17;;;0.60;;
39822;SDS011;25499;53.958;10.970;2023-07-31T16:58:27;2.72;;;0.70;;
39822;SDS011;25499;53.958;10.970;2023-07-31T17:00:53;2.80;;;0.60;;
39822;SDS011;25499;53.958;10.970;2023-07-31T17:03:20;1.58;;;0.70;;
39822;SDS011;25499;53.958;10.970;2023-07-31T17:05:48;2.35;;;0.80;;
39822;SDS011;25499;53.958;10.970;2023-07-31T17:08:15;2.00;;;0.70;;
39822;SDS011;25499;53.958;10.970;2023-07-31T17:10:42;0.90;;;0.80;;
39822;SDS011;25499;53.958;10.970;2023-07-31T17:13:08;1.13;;;0.70;;
39822;SDS011;25499;53.958;10.970;2023-07-31T17:15:36;2.60;;;0.52;;
39822;SDS011;25499;53.958;10.970;2023-07-31T17:18:03;0.60;;;0.50;;
39822;SDS011;25499;53.958;10.970;2023-07-31T17:20:30;1.88;;;0.60;;
39822;SDS011;25499;53.958;10.970;2023-07-31T17:22:59;1.25;;;0.50;;
39822;SDS011;25499;53.958;10.970;2023-07-31T17:25:26;1.85;;;0.50;;
39822;SDS011;25499;53.958;10.970;2023-07-31T17:27:52;2.20;;;0.52;;
39822;SDS011;25499;53.958;10.970;2023-07-31T17:30:19;0.70;;;0.50;;
39822;SDS011;25499;53.958;10.970;2023-07-31T17:32:46;0.55;;;0.50;;
39822;SDS011;25499;53.958;10.970;2023-07-31T17:35:13;0.55;;;0.55;;
39822;SDS011;25499;53.958;10.970;2023-07-31T17:37:40;0.60;;;0.40;;
39822;SDS011;25499;53.958;10.970;2023-07-31T17:40:08;0.90;;;0.43;;
39822;SDS011;25499;53.958;10.970;2023-07-31T17:42:36;0.52;;;0.47;;
39822;SDS011;25499;53.958;10.970;2023-07-31T17:45:03;1.00;;;0.70;;
39822;SDS011;25499;53.958;10.970;2023-07-31T17:47:30;3.40;;;0.40;;
39822;SDS011;25499;53.958;10.970;2023-07-31T17:49:57;2.20;;;0.50;;
39822;SDS011;25499;53.958;10.970;2023-07-31T17:52:23;3.05;;;0.60;;
39822;SDS011;25499;53.958;10.970;2023-07-31T17:54:50;0.88;;;0.50;;
39822;SDS011;25499;53.958;10.970;2023-07-31T17:57:20;0.47;;;0.47;;
39822;SDS011;25499;53.958;10.970;2023-07-31T17:59:47;2.15;;;0.68;;
39822;SDS011;25499;53.958;10.970;2023-07-31T18:02:14;0.75;;;0.50;;
39822;SDS011;25499;53.958;10.970;2023-07-31T18:04:41;0.77;;;0.60;;
39822;SDS011;25499;53.958;10.970;2023-07-31T18:07:07;2.15;;;0.73;;
39822;SDS011;25499;53.958;10.970;2023-07-31T18:09:34;1.33;;;0.50;;
39822;SDS011;25499;53.958;10.970;2023-07-31T18:12:01;0.88;;;0.65;;
39822;SDS011;25499;53.958;10.970;2023-07-31T18:14:30;2.15;;;0.60;;
39822;SDS011;25499;53.958;10.970;2023-07-31T18:16:59;4.30;;;0.70;;
39822;SDS011;25499;53.958;10.970;2023-07-31T18:19:26;1.20;;;0.60;;
39822;SDS011;25499;53.958;10.970;2023-07-31T18:21:53;0.73;;;0.60;;
39822;SDS011;25499;53.958;10.970;2023-07-31T18:24:20;2.55;;;0.68;;
39822;SDS011;25499;53.958;10.970;2023-07-31T18:26:47;2.10;;;0.50;;
39822;SDS011;25499;53.958;10.970;2023-07-31T18:29:13;3.33;;;0.60;;
39822;SDS011;25499;53.958;10.970;2023-07-31T18:31:41;1.50;;;0.70;;
39822;SDS011;25499;53.958;10.970;2023-07-31T18:34:08;3.17;;;0.70;;
39822;SDS011;25499;53.958;10.970;2023-07-31T18:36:42;1.92;;;0.70;;
39822;SDS011;25499;53.958;10.970;2023-07-31T18:39:09;0.95;;;0.70;;
39822;SDS011;25499;53.958;10.970;2023-07-31T18:41:35;1.25;;;0.73;;
39822;SDS011;25499;53.958;10.970;2023-07-31T18:44:04;1.45;;;0.90;;
39822;SDS011;25499;53.958;10.970;2023-07-31T18:46:31;2.03;;;1.27;;
39822;SDS011;25499;53.958;10.970;2023-07-31T18:48:59;1.10;;;0.68;;
39822;SDS011;25499;53.958;10.970;2023-07-31T18:51:26;0.70;;;0.45;;
39822;SDS011;25499;53.958;10.970;2023-07-31T18:53:53;1.55;;;0.55;;
39822;SDS011;25499;53.958;10.970;2023-07-31T18:56:20;0.55;;;0.52;;
39822;SDS011;25499;53.958;10.970;2023-07-31T18:58:46;2.45;;;0.70;;
39822;SDS011;25499;53.958;10.970;2023-07-31T19:01:15;1.63;;;0.70;;
39822;SDS011;25499;53.958;10.970;2023-07-31T19:03:42;2.20;;;0.88;;
39822;SDS011;25499;53.958;10.970;2023-07-31T19:06:10;2.00;;;0.70;;
39822;SDS011;25499;53.958;10.970;2023-07-31T19:08:37;2.17;;;0.75;;
39822;SDS011;25499;53.958;10.970;2023-07-31T19:11:04;2.30;;;0.63;;
39822;SDS011;25499;53.958;10.970;2023-07-31T19:13:30;1.05;;;0.60;;
39822;SDS011;25499;53.958;10.970;2023-07-31T19:15:58;2.90;;;0.75;;
39822;SDS011;25499;53.958;10.970;2023-07-31T19:18:25;3.55;;;0.90;;
39822;SDS011;25499;53.958;10.970;2023-07-31T19:20:51;1.30;;;0.88;;
39822;SDS011;25499;53.958;10.970;2023-07-31T19:23:21;1.50;;;1.10;;
39822;SDS011;25499;53.958;10.970;2023-07-31T19:25:49;1.88;;;1.02;;
39822;SDS011;25499;53.958;10.970;2023-07-31T19:28:24;4.38;;;1.63;;
39822;SDS011;25499;53.958;10.970;2023-07-31T19:31:10;4.85;;;1.67;;
39822;SDS011;25499;53.958;10.970;2023-07-31T19:33:53;2.30;;;1.73;;
39822;SDS011;25499;53.958;10.970;2023-07-31T19:36:35;4.32;;;1.65;;
39822;SDS011;25499;53.958;10.970;2023-07-31T19:42:31;2.13;;;1.50;;
39822;SDS011;25499;53.958;10.970;2023-07-31T19:45:01;2.92;;;1.48;;
39822;SDS011;25499;53.958;10.970;2023-07-31T19:47:33;7.10;;;1.98;;
39822;SDS011;25499;53.958;10.970;2023-07-31T19:50:07;3.55;;;1.98;;
39822;SDS011;25499;53.958;10.970;2023-07-31T19:52:42;3.17;;;2.08;;
39822;SDS011;25499;53.958;10.970;2023-07-31T19:55:26;3.78;;;2.50;;
39822;SDS011;25499;53.958;10.970;2023-07-31T19:58:02;2.78;;;2.55;;
39822;SDS011;25499;53.958;10.970;2023-07-31T20:00:32;5.95;;;2.60;;
39822;SDS011;25499;53.958;10.970;2023-07-31T20:03:07;4.90;;;2.60;;
39822;SDS011;25499;53.958;10.970;2023-07-31T20:05:38;3.17;;;2.70;;
39822;SDS011;25499;53.958;10.970;2023-07-31T20:08:06;3.77;;;2.60;;
39822;SDS011;25499;53.958;10.970;2023-07-31T20:10:41;4.75;;;2.67;;
39822;SDS011;25499;53.958;10.970;2023-07-31T20:13:14;3.78;;;2.90;;
39822;SDS011;25499;53.958;10.970;2023-07-31T20:15:46;4.30;;;3.15;;
